createdAt,value
2019-04-10T00:00:59.273Z,99749.16
2019-04-10T00:03:34.106Z,99751.41
2019-04-10T00:06:04.681Z,99748.97
2019-04-10T00:08:36.679Z,99753.47
2019-04-10T00:11:08.642Z,99750.18
2019-04-10T00:13:40.851Z,99751.19
2019-04-10T00:16:12.442Z,99753.55
2019-04-10T00:18:44.347Z,99749.61
2019-04-10T00:21:17.443Z,99748.45
2019-04-10T00:23:49.434Z,99754.19
2019-04-10T00:26:21.663Z,99758.24
2019-04-10T00:28:53.913Z,99759.09
2019-04-10T00:31:26.349Z,99755.61
2019-04-10T00:33:58.976Z,99750.31
2019-04-10T00:36:30.601Z,99757.64
2019-04-10T00:39:02.407Z,99752.73
2019-04-10T00:41:34.448Z,99748.20
2019-04-10T00:44:06.184Z,99747.55
2019-04-10T00:46:38.049Z,99750.72
2019-04-10T00:49:09.782Z,99747.51
2019-04-10T00:51:41.655Z,99759.34
2019-04-10T00:54:14.589Z,99755.67
2019-04-10T00:56:46.370Z,99759.69
2019-04-10T00:59:18.017Z,99756.24
2019-04-10T01:01:49.643Z,99749.75
2019-04-10T01:04:22.819Z,99750.67
2019-04-10T01:06:54.603Z,99745.03
2019-04-10T01:09:27.063Z,99744.37
2019-04-10T01:11:59.374Z,99744.75
2019-04-10T01:14:31.809Z,99748.31
2019-04-10T01:17:04.080Z,99742.66
2019-04-10T01:19:36.346Z,99733.54
2019-04-10T01:22:08.701Z,99731.56
2019-04-10T01:24:40.475Z,99736.05
2019-04-10T01:27:12.144Z,99733.42
2019-04-10T01:29:44.133Z,99729.97
2019-04-10T01:32:15.811Z,99732.60
2019-04-10T01:34:47.617Z,99730.91
2019-04-10T01:37:19.473Z,99733.99
2019-04-10T01:39:52.743Z,99736.31
2019-04-10T01:42:24.869Z,99735.93
2019-04-10T01:44:57.326Z,99733.80
2019-04-10T01:47:29.136Z,99729.00
2019-04-10T01:50:02.302Z,99728.16
2019-04-10T01:52:35.064Z,99731.32
2019-04-10T01:55:17.265Z,99727.56
2019-04-10T01:57:41.756Z,99730.66
2019-04-10T02:00:17.206Z,99733.56
2019-04-10T02:02:53.798Z,99726.25
2019-04-10T02:05:25.870Z,99728.08
2019-04-10T02:08:05.266Z,99728.16
2019-04-10T02:10:32.085Z,99726.09
2019-04-10T02:13:03.796Z,99727.48
2019-04-10T02:15:36.348Z,99728.03
2019-04-10T02:18:08.865Z,99729.45
2019-04-10T02:20:40.513Z,99726.44
2019-04-10T02:23:12.275Z,99715.61
2019-04-10T02:25:45.131Z,99726.23
2019-04-10T02:28:16.815Z,99727.55
2019-04-10T02:30:50.113Z,99723.99
2019-04-10T02:33:23.250Z,99724.34
2019-04-10T02:35:55.006Z,99725.20
2019-04-10T02:38:43.077Z,99723.03
2019-04-10T02:41:01.543Z,99719.20
2019-04-10T02:43:33.651Z,99723.61
2019-04-10T02:46:06.449Z,99724.45
2019-04-10T02:48:39.423Z,99724.45
2019-04-10T02:51:11.415Z,99726.13
2019-04-10T02:53:43.806Z,99725.30
2019-04-10T02:56:15.984Z,99722.67
2019-04-10T02:58:49.166Z,99728.29
2019-04-10T03:01:21.026Z,99720.05
2019-04-10T03:03:54.813Z,99722.29
2019-04-10T03:06:27.278Z,99730.25
2019-04-10T03:09:14.654Z,99733.34
2019-04-10T03:11:33.046Z,99727.81
2019-04-10T03:14:05.730Z,99734.06
2019-04-10T03:16:37.594Z,99729.73
2019-04-10T03:19:09.523Z,99729.27
2019-04-10T03:21:41.159Z,99725.80
2019-04-10T03:24:13.685Z,99721.96
2019-04-10T03:26:46.373Z,99725.98
2019-04-10T03:29:18.632Z,99730.84
2019-04-10T03:31:52.266Z,99727.37
2019-04-10T03:34:28.405Z,99727.94
2019-04-10T03:37:00.001Z,99733.55
2019-04-10T03:39:34.789Z,99730.92
2019-04-10T03:42:06.524Z,99733.20
2019-04-10T03:44:38.890Z,99731.88
2019-04-10T03:47:11.287Z,99734.51
2019-04-10T03:49:42.978Z,99727.55
2019-04-10T03:52:14.671Z,99738.98
2019-04-10T03:54:46.347Z,99737.86
2019-04-10T03:57:18.427Z,99735.38
2019-04-10T03:59:50.313Z,99739.39
2019-04-10T04:02:22.055Z,99740.42
2019-04-10T04:04:53.839Z,99744.05
2019-04-10T04:07:26.987Z,99741.14
2019-04-10T04:09:58.952Z,99746.33
2019-04-10T04:12:31.073Z,99744.52
2019-04-10T04:15:03.639Z,99746.79
2019-04-10T04:17:36.019Z,99747.71
2019-04-10T04:20:08.122Z,99744.70
2019-04-10T04:22:39.808Z,99746.66
2019-04-10T04:25:12.729Z,99745.88
2019-04-10T04:27:44.473Z,99746.27
2019-04-10T04:30:17.086Z,99749.74
2019-04-10T04:32:48.665Z,99743.25
2019-04-10T04:35:20.309Z,99747.27
2019-04-10T04:37:52.635Z,99754.40
2019-04-10T04:40:24.426Z,99747.05
2019-04-10T04:42:56.058Z,99753.69
2019-04-10T04:45:27.906Z,99753.69
2019-04-10T04:47:59.810Z,99749.47
2019-04-10T04:50:31.431Z,99752.55
2019-04-10T04:53:04.252Z,99759.97
2019-04-10T04:55:36.109Z,99754.80
2019-04-10T04:58:07.822Z,99759.13
2019-04-10T05:00:39.685Z,99762.59
2019-04-10T05:03:12.019Z,99759.05
2019-04-10T05:05:43.851Z,99767.67
2019-04-10T05:08:15.479Z,99768.06
2019-04-10T05:10:48.001Z,99769.55
2019-04-10T05:13:19.643Z,99770.09
2019-04-10T05:15:51.667Z,99777.30
2019-04-10T05:18:23.371Z,99779.14
2019-04-10T05:20:55.005Z,99784.95
2019-04-10T05:23:26.657Z,99776.23
2019-04-10T05:25:59.161Z,99784.00
2019-04-10T05:28:32.658Z,99782.69
2019-04-10T05:31:04.866Z,99787.48
2019-04-10T05:33:36.821Z,99787.94
2019-04-10T05:36:08.946Z,99789.18
2019-04-10T05:38:41.857Z,99789.57
2019-04-10T05:41:13.811Z,99796.06
2019-04-10T05:43:45.511Z,99791.17
2019-04-10T05:46:17.184Z,99793.27
2019-04-10T05:48:49.159Z,99792.80
2019-04-10T05:51:21.328Z,99795.81
2019-04-10T05:53:55.307Z,99800.50
2019-04-10T05:56:26.415Z,99803.13
2019-04-10T05:58:58.658Z,99808.31
2019-04-10T06:01:35.508Z,99804.77
2019-04-10T06:04:03.804Z,99812.57
2019-04-10T06:06:36.431Z,99811.72
2019-04-10T06:09:09.826Z,99808.63
2019-04-10T06:11:43.843Z,99806.29
2019-04-10T06:14:15.780Z,99806.61
2019-04-10T06:16:47.525Z,99811.15
2019-04-10T06:19:19.986Z,99802.91
2019-04-10T06:21:52.428Z,99807.84
2019-04-10T06:24:24.516Z,99805.45
2019-04-10T06:26:56.517Z,99811.84
2019-04-10T06:29:28.825Z,99805.09
2019-04-10T06:32:01.117Z,99799.30
2019-04-10T06:34:34.182Z,99802.71
2019-04-10T06:37:06.179Z,99803.84
2019-04-10T06:39:38.596Z,99808.84
2019-04-10T06:42:10.262Z,99804.64
2019-04-10T06:44:42.029Z,99805.23
2019-04-10T06:47:13.893Z,99804.09
2019-04-10T06:49:46.047Z,99811.72
2019-04-10T06:52:18.573Z,99814.27
2019-04-10T06:54:51.105Z,99808.08
2019-04-10T06:57:23.044Z,99809.86
2019-04-10T06:59:54.991Z,99809.78
2019-04-10T07:02:29.540Z,99807.54
2019-04-10T07:05:05.876Z,99811.30
2019-04-10T07:07:47.547Z,99815.45
2019-04-10T07:10:22.607Z,99815.30
2019-04-10T07:12:46.181Z,99819.44
2019-04-10T07:15:21.135Z,99819.26
2019-04-10T07:17:51.898Z,99818.98
2019-04-10T07:20:24.085Z,99811.83
2019-04-10T07:22:57.024Z,99815.23
2019-04-10T07:25:29.894Z,99824.83
2019-04-10T07:28:02.766Z,99826.27
2019-04-10T07:30:35.973Z,99828.44
2019-04-10T07:33:08.004Z,99823.63
2019-04-10T07:35:40.500Z,99831.06
2019-04-10T07:38:12.155Z,99832.38
2019-04-10T07:40:46.962Z,99830.88
2019-04-10T07:43:20.738Z,99839.17
2019-04-10T07:45:50.944Z,99837.23
2019-04-10T07:48:23.100Z,99839.59
2019-04-10T07:50:55.810Z,99839.13
2019-04-10T07:53:28.096Z,99843.08
2019-04-10T07:56:06.462Z,99841.30
2019-04-10T07:58:35.496Z,99840.45
2019-04-10T08:01:07.902Z,99846.76
2019-04-10T08:03:39.801Z,99848.58
2019-04-10T08:06:11.689Z,99851.95
2019-04-10T08:08:43.333Z,99845.68
2019-04-10T08:11:15.503Z,99846.06
2019-04-10T08:13:47.526Z,99849.83
2019-04-10T08:16:19.166Z,99847.58
2019-04-10T08:18:52.138Z,99853.97
2019-04-10T08:21:23.963Z,99860.00
2019-04-10T08:23:55.692Z,99864.23
2019-04-10T08:26:28.171Z,99856.91
2019-04-10T08:29:01.974Z,99856.33
2019-04-10T08:31:34.120Z,99862.83
2019-04-10T08:34:06.675Z,99854.85
2019-04-10T08:36:39.502Z,99855.89
2019-04-10T08:39:11.452Z,99856.28
2019-04-10T08:41:43.764Z,99854.39
2019-04-10T08:44:15.705Z,99851.02
2019-04-10T08:46:48.294Z,99861.77
2019-04-10T08:49:21.339Z,99856.56
2019-04-10T08:51:53.346Z,99857.91
2019-04-10T08:54:25.891Z,99854.63
2019-04-10T08:56:57.966Z,99867.97
2019-04-10T08:59:30.045Z,99851.50
2019-04-10T09:02:02.025Z,99857.09
2019-04-10T09:04:33.875Z,99853.58
2019-04-10T09:07:06.796Z,99857.17
2019-04-10T09:09:40.257Z,99853.73
2019-04-10T09:12:11.945Z,99851.66
2019-04-10T09:14:43.987Z,99850.25
2019-04-10T09:17:15.646Z,99860.33
2019-04-10T09:19:47.412Z,99854.11
2019-04-10T09:22:19.109Z,99857.31
2019-04-10T09:24:50.843Z,99853.65
2019-04-10T09:27:22.556Z,99861.56
2019-04-10T09:29:54.764Z,99857.23
2019-04-10T09:32:26.597Z,99859.48
2019-04-10T09:34:58.310Z,99863.94
2019-04-10T09:37:31.175Z,99868.80
2019-04-10T09:40:03.681Z,99868.63
2019-04-10T09:42:35.453Z,99867.48
2019-04-10T09:45:07.796Z,99873.14
2019-04-10T09:47:39.623Z,99872.59
2019-04-10T09:50:11.707Z,99877.48
2019-04-10T09:52:44.035Z,99875.88
2019-04-10T09:55:16.021Z,99868.80
2019-04-10T09:57:48.101Z,99870.04
2019-04-10T10:00:21.367Z,99875.48
2019-04-10T10:02:53.082Z,99869.09
2019-04-10T10:05:24.794Z,99874.93
2019-04-10T10:07:56.713Z,99866.72
2019-04-10T10:10:29.038Z,99864.45
2019-04-10T10:13:01.272Z,99870.03
2019-04-10T10:15:33.589Z,99868.03
2019-04-10T10:18:05.515Z,99868.58
2019-04-10T10:20:39.874Z,99865.38
2019-04-10T10:23:11.762Z,99874.23
2019-04-10T10:25:43.772Z,99872.28
2019-04-10T10:28:15.788Z,99873.77
2019-04-10T10:30:48.127Z,99871.43
2019-04-10T10:33:20.164Z,99871.98
2019-04-10T10:35:52.157Z,99883.47
2019-04-10T10:38:23.856Z,99876.66
2019-04-10T10:40:55.575Z,99870.98
2019-04-10T10:43:28.693Z,99878.86
2019-04-10T10:46:00.993Z,99878.86
2019-04-10T10:48:32.724Z,99872.16
2019-04-10T10:51:04.636Z,99871.52
2019-04-10T10:53:36.487Z,99876.02
2019-04-10T10:56:08.261Z,99875.97
2019-04-10T10:58:39.963Z,99875.78
2019-04-10T11:01:11.653Z,99871.77
2019-04-10T11:03:44.575Z,99878.25
2019-04-10T11:06:17.734Z,99874.55
2019-04-10T11:08:49.499Z,99871.99
2019-04-10T11:11:22.614Z,99874.70
2019-04-10T11:13:55.106Z,99865.52
2019-04-10T11:16:27.433Z,99863.81
2019-04-10T11:18:59.701Z,99862.37
2019-04-10T11:21:32.461Z,99867.48
2019-04-10T11:24:04.712Z,99861.19
2019-04-10T11:26:37.581Z,99871.78
2019-04-10T11:29:10.001Z,99859.30
2019-04-10T11:31:42.197Z,99864.37
2019-04-10T11:34:14.194Z,99860.55
2019-04-10T11:36:45.939Z,99868.02
2019-04-10T11:39:23.338Z,99870.56
2019-04-10T11:41:52.679Z,99863.25
2019-04-10T11:44:24.896Z,99855.11
2019-04-10T11:46:58.718Z,99859.33
2019-04-10T11:49:31.610Z,99863.44
2019-04-10T11:52:06.259Z,99862.64
2019-04-10T11:54:41.273Z,99870.30
2019-04-10T11:57:13.201Z,99870.98
2019-04-10T11:59:47.381Z,99875.10
2019-04-10T12:02:21.840Z,99871.84
2019-04-10T12:04:55.697Z,99873.17
2019-04-10T12:12:33.401Z,99878.13
2019-04-10T12:15:06.337Z,99882.66
2019-04-10T12:17:38.239Z,99877.00
2019-04-10T12:20:11.190Z,99887.20
2019-04-10T12:22:43.908Z,99881.91
2019-04-10T12:25:16.691Z,99882.66
2019-04-10T12:27:49.411Z,99882.56
2019-04-10T12:30:21.771Z,99882.37
2019-04-10T12:32:53.495Z,99883.83
2019-04-10T12:35:25.898Z,99881.36
2019-04-10T12:38:02.680Z,99874.47
2019-04-10T12:40:31.097Z,99877.22
2019-04-10T12:43:02.951Z,99877.48
2019-04-10T12:45:34.713Z,99878.71
2019-04-10T12:48:06.601Z,99873.89
2019-04-10T12:50:39.118Z,99877.02
2019-04-10T12:53:11.621Z,99875.31
2019-04-10T12:55:43.837Z,99883.83
2019-04-10T12:58:17.542Z,99872.16
2019-04-10T13:00:50.494Z,99873.10
2019-04-10T13:03:23.069Z,99877.45
2019-04-10T13:05:55.670Z,99876.50
2019-04-10T13:08:47.347Z,99877.45
2019-04-10T13:11:01.134Z,99879.14
2019-04-10T13:13:33.851Z,99877.34
2019-04-10T13:16:05.734Z,99875.05
2019-04-10T13:18:38.536Z,99879.28
2019-04-10T13:21:10.533Z,99885.80
2019-04-10T13:23:42.220Z,99879.77
2019-04-10T13:26:13.898Z,99882.98
2019-04-10T13:28:45.727Z,99885.48
2019-04-10T13:31:17.732Z,99879.27
2019-04-10T13:33:49.678Z,99883.84
2019-04-10T13:36:21.779Z,99878.66
2019-04-10T13:38:54.797Z,99882.62
2019-04-10T13:41:26.443Z,99886.22
2019-04-10T13:43:58.538Z,99886.07
2019-04-10T13:46:31.017Z,99881.48
2019-04-10T13:49:03.740Z,99884.23
2019-04-10T13:51:37.277Z,99889.42
2019-04-10T13:54:10.329Z,99881.36
2019-04-10T13:56:42.065Z,99887.88
2019-04-10T13:59:15.222Z,99887.02
2019-04-10T14:01:48.109Z,99887.50
2019-04-10T14:04:19.981Z,99888.81
2019-04-10T14:06:51.864Z,99890.80
2019-04-10T14:09:34.771Z,99889.98
2019-04-10T14:11:57.550Z,99895.33
2019-04-10T14:14:29.513Z,99894.95
2019-04-10T14:17:04.112Z,99891.93
2019-04-10T14:19:35.233Z,99891.83
2019-04-10T14:22:07.200Z,99892.55
2019-04-10T14:24:44.180Z,99892.95
2019-04-10T14:27:16.072Z,99895.67
2019-04-10T14:29:48.959Z,99897.59
2019-04-10T14:32:35.717Z,99897.93
2019-04-10T14:35:09.969Z,99901.85
2019-04-10T14:37:41.758Z,99903.60
2019-04-10T14:40:13.923Z,99907.89
2019-04-10T14:42:45.952Z,99901.61
2019-04-10T14:45:17.958Z,99910.39
2019-04-10T14:47:50.365Z,99905.58
2019-04-10T14:50:29.479Z,99909.07
2019-04-10T14:53:01.493Z,99911.96
2019-04-10T14:55:33.484Z,99912.48
2019-04-10T14:58:07.492Z,99917.20
2019-04-10T15:00:49.700Z,99913.95
2019-04-10T15:03:22.854Z,99914.94
2019-04-10T15:05:56.782Z,99915.41
2019-04-10T15:08:28.016Z,99917.45
2019-04-10T15:11:00.327Z,99926.99
2019-04-10T15:13:32.134Z,99925.44
2019-04-10T15:16:04.943Z,99927.98
2019-04-10T15:18:37.182Z,99929.55
2019-04-10T15:21:08.913Z,99930.06
2019-04-10T15:23:40.637Z,99924.97
2019-04-10T15:26:14.267Z,99932.05
2019-04-10T15:28:46.096Z,99928.19
2019-04-10T15:31:19.390Z,99931.06
2019-04-10T15:33:51.800Z,99934.08
2019-04-10T15:36:25.029Z,99927.94
2019-04-10T15:38:58.193Z,99931.53
2019-04-10T15:41:30.755Z,99930.30
2019-04-10T15:44:04.189Z,99933.80
2019-04-10T15:46:35.967Z,99936.11
2019-04-10T15:49:07.653Z,99936.11
2019-04-10T15:51:39.445Z,99936.58
2019-04-10T15:54:11.781Z,99941.40
2019-04-10T15:56:44.417Z,99938.63
2019-04-10T15:59:16.447Z,99944.30
2019-04-10T16:01:48.963Z,99945.14
2019-04-10T16:04:21.174Z,99944.39
2019-04-10T16:06:53.723Z,99941.02
2019-04-10T16:09:27.285Z,99944.99
2019-04-10T16:12:06.301Z,99946.03
2019-04-10T16:14:38.101Z,99947.48
2019-04-10T16:17:36.135Z,99956.37
2019-04-10T16:20:25.145Z,99953.55
2019-04-10T16:23:18.500Z,99953.62
2019-04-10T16:25:52.414Z,99959.09
2019-04-10T16:28:24.614Z,99957.38
2019-04-10T16:30:57.225Z,99957.31
2019-04-10T16:33:29.472Z,99962.80
2019-04-10T16:36:01.116Z,99970.09
2019-04-10T16:38:33.103Z,99962.48
2019-04-10T16:41:04.844Z,99973.94
2019-04-10T16:43:36.529Z,99970.06
2019-04-10T16:46:08.538Z,99972.83
2019-04-10T16:48:40.448Z,99975.95
2019-04-10T16:51:12.295Z,99971.98
2019-04-10T16:53:44.166Z,99970.66
2019-04-10T16:56:16.201Z,99971.98
2019-04-10T16:58:48.124Z,99973.39
2019-04-10T17:01:20.508Z,99981.17
2019-04-10T17:03:52.528Z,99977.89
2019-04-10T17:06:24.293Z,99979.40
2019-04-10T17:08:56.427Z,99985.28
2019-04-10T17:11:29.145Z,99982.82
2019-04-10T17:14:02.746Z,99983.51
2019-04-10T17:16:34.564Z,99984.07
2019-04-10T17:19:07.614Z,99984.63
2019-04-10T17:21:40.661Z,99985.10
2019-04-10T17:24:13.388Z,99986.98
2019-04-10T17:26:45.214Z,99993.97
2019-04-10T17:29:17.061Z,99999.73
2019-04-10T17:31:49.159Z,99995.30
2019-04-10T17:34:20.869Z,99995.77
2019-04-10T17:36:53.550Z,99999.35
2019-04-10T17:39:25.242Z,99996.45
2019-04-10T17:41:57.825Z,100002.20
2019-04-10T17:44:29.860Z,99997.86
2019-04-10T17:47:01.966Z,100004.94
2019-04-10T17:49:33.957Z,100004.18
2019-04-10T17:52:06.315Z,100003.45
2019-04-10T17:54:38.718Z,100005.92
2019-04-10T17:57:10.775Z,100016.20
2019-04-10T17:59:42.815Z,100017.83
2019-04-10T18:02:15.732Z,100019.91
2019-04-10T18:04:48.318Z,100021.53
2019-04-10T18:07:21.714Z,100025.88
2019-04-10T18:09:53.436Z,100025.88
2019-04-10T18:12:25.317Z,100032.39
2019-04-10T18:14:57.630Z,100030.05
2019-04-10T18:17:29.459Z,100032.89
2019-04-10T18:20:01.180Z,100036.00
2019-04-10T18:22:34.322Z,100043.54
2019-04-10T18:25:06.643Z,100043.27
2019-04-10T18:27:38.696Z,100049.58
2019-04-10T18:30:11.000Z,100047.88
2019-04-10T18:32:43.910Z,100052.98
2019-04-10T18:35:16.401Z,100052.97
2019-04-10T18:37:49.102Z,100058.73
2019-04-10T18:40:21.188Z,100058.53
2019-04-10T18:42:55.850Z,100069.50
2019-04-10T18:45:26.611Z,100073.16
2019-04-10T18:47:58.543Z,100076.82
2019-04-10T18:50:30.389Z,100077.37
2019-04-10T18:53:02.280Z,100085.06
2019-04-10T18:55:34.038Z,100089.17
2019-04-10T18:58:09.505Z,100089.20
2019-04-10T19:00:54.952Z,100091.75
2019-04-10T19:03:50.162Z,100094.63
2019-04-10T19:06:22.516Z,100102.41
2019-04-10T19:09:07.456Z,100095.23
2019-04-10T19:11:33.280Z,100099.30
2019-04-10T19:14:02.095Z,100102.00
2019-04-10T19:16:35.163Z,100104.44
2019-04-10T19:19:08.099Z,100104.59
2019-04-10T19:21:40.106Z,100109.19
2019-04-10T19:24:12.302Z,100113.02
2019-04-10T19:26:45.354Z,100114.98
2019-04-10T19:29:17.699Z,100119.22
2019-04-10T19:31:54.034Z,100113.75
2019-04-10T19:34:25.949Z,100120.88
2019-04-10T19:36:58.391Z,100120.59
2019-04-10T19:39:30.343Z,100119.88
2019-04-10T19:42:02.864Z,100122.77
2019-04-10T19:44:35.196Z,100128.68
2019-04-10T19:47:08.245Z,100128.54
2019-04-10T19:49:41.289Z,100128.86
2019-04-10T19:52:14.107Z,100134.84
2019-04-10T19:54:47.156Z,100130.75
2019-04-10T19:57:19.337Z,100145.40
2019-04-10T19:59:52.294Z,100143.30
2019-04-10T20:02:24.693Z,100144.08
2019-04-10T20:04:56.962Z,100142.47
2019-04-10T20:07:29.035Z,100137.35
2019-04-10T20:10:02.282Z,100146.66
2019-04-10T20:12:34.946Z,100151.92
2019-04-10T20:15:06.883Z,100150.68
2019-04-10T20:17:38.602Z,100157.65
2019-04-10T20:20:11.003Z,100157.72
2019-04-10T20:22:43.820Z,100154.80
2019-04-10T20:25:16.464Z,100154.80
2019-04-10T20:27:48.435Z,100162.69
2019-04-10T20:30:22.197Z,100162.20
2019-04-10T20:32:56.468Z,100163.52
2019-04-10T20:35:28.652Z,100167.85
2019-04-10T20:38:01.011Z,100168.24
2019-04-10T20:40:33.947Z,100172.58
2019-04-10T20:43:06.774Z,100173.90
2019-04-10T20:45:39.863Z,100177.38
2019-04-10T20:48:12.068Z,100176.53
2019-04-10T20:50:44.055Z,100186.13
2019-04-10T20:53:15.998Z,100188.30
2019-04-10T20:55:48.197Z,100192.78
2019-04-10T20:58:20.259Z,100189.00
2019-04-10T21:00:51.965Z,100198.21
2019-04-10T21:03:25.220Z,100196.40
2019-04-10T21:05:58.360Z,100206.56
2019-04-10T21:08:30.145Z,100204.79
2019-04-10T21:11:01.936Z,100211.37
2019-04-10T21:13:34.059Z,100205.71
2019-04-10T21:16:07.024Z,100212.29
2019-04-10T21:18:39.742Z,100210.58
2019-04-10T21:21:12.343Z,100211.96
2019-04-10T21:23:44.350Z,100214.30
2019-04-10T21:26:16.389Z,100209.28
2019-04-10T21:28:48.249Z,100207.02
2019-04-10T21:31:38.691Z,100220.23
2019-04-10T21:34:32.554Z,100214.48
2019-04-10T21:37:04.288Z,100215.00
2019-04-10T21:39:36.123Z,100225.88
2019-04-10T21:42:14.792Z,100222.62
2019-04-10T21:44:41.277Z,100225.53
2019-04-10T21:47:13.153Z,100230.09
2019-04-10T21:49:44.814Z,100232.00
2019-04-10T21:52:16.533Z,100231.85
2019-04-10T21:54:52.603Z,100233.05
2019-04-10T21:57:22.308Z,100234.65
2019-04-10T21:59:54.134Z,100236.23
2019-04-10T22:02:26.014Z,100235.59
2019-04-10T22:04:59.622Z,100238.50
2019-04-10T22:07:48.427Z,100246.66
2019-04-10T22:10:34.271Z,100246.50
2019-04-10T22:13:05.981Z,100253.70
2019-04-10T22:15:43.350Z,100249.12
2019-04-10T22:18:16.962Z,100248.81
2019-04-10T22:20:49.891Z,100255.58
2019-04-10T22:23:22.442Z,100258.41
2019-04-10T22:25:54.305Z,100257.67
2019-04-10T22:28:26.216Z,100264.84
2019-04-10T22:30:58.348Z,100268.92
2019-04-10T22:33:30.065Z,100274.75
2019-04-10T22:36:01.808Z,100273.63
2019-04-10T22:38:33.522Z,100285.64
2019-04-10T22:41:17.368Z,100293.20
2019-04-10T22:43:38.737Z,100295.50
2019-04-10T22:46:10.934Z,100292.22
2019-04-10T22:48:43.684Z,100294.98
2019-04-10T22:51:15.644Z,100302.59
2019-04-10T22:53:47.950Z,100307.55
2019-04-10T22:56:20.852Z,100314.25
2019-04-10T22:58:53.267Z,100312.27
2019-04-10T23:01:25.415Z,100315.95
2019-04-10T23:03:57.398Z,100312.58
2019-04-10T23:06:29.287Z,100318.41
2019-04-10T23:09:02.057Z,100314.67
2019-04-10T23:11:41.130Z,100318.66
2019-04-10T23:14:07.102Z,100325.84
2019-04-10T23:16:40.070Z,100325.98
2019-04-10T23:19:12.028Z,100326.55
2019-04-10T23:21:43.641Z,100325.82
2019-04-10T23:24:16.808Z,100326.00
2019-04-10T23:26:49.271Z,100331.43
2019-04-10T23:29:20.927Z,100336.32
2019-04-10T23:31:52.815Z,100328.64
2019-04-10T23:34:25.085Z,100330.18
2019-04-10T23:36:56.882Z,100341.11
2019-04-10T23:39:28.495Z,100339.89
2019-04-10T23:42:01.141Z,100347.80
2019-04-10T23:44:33.175Z,100357.09
2019-04-10T23:47:06.036Z,100358.23
2019-04-10T23:49:37.675Z,100351.80
2019-04-10T23:52:09.695Z,100354.07
2019-04-10T23:54:41.629Z,100354.11
2019-04-10T23:57:13.587Z,100353.66
2019-04-10T23:59:46.736Z,100353.80
